createdAt,value
2022-09-24T00:00:17.109Z,15
2022-09-24T00:05:17.112Z,10
2022-09-24T00:10:20.037Z,11
2022-09-24T00:15:20.104Z,13
2022-09-24T00:20:20.863Z,13
2022-09-24T00:25:20.049Z,11
2022-09-24T00:30:17.117Z,15
2022-09-24T00:35:20.276Z,12
2022-09-24T00:40:20.233Z,15
2022-09-24T00:45:20.012Z,12
2022-09-24T00:50:17.051Z,12
2022-09-24T00:55:17.895Z,10
2022-09-24T01:00:17.093Z,13
2022-09-24T01:05:20.167Z,15
2022-09-24T01:10:20.237Z,16
2022-09-24T01:15:20.076Z,14
2022-09-24T01:20:20.092Z,14
2022-09-24T01:25:17.135Z,9
2022-09-24T01:30:20.943Z,17
2022-09-24T01:35:20.076Z,9
2022-09-24T01:40:20.139Z,15
2022-09-24T01:45:20.076Z,14
2022-09-24T01:50:20.048Z,13
2022-09-24T01:55:17.125Z,10
2022-09-24T02:00:20.153Z,15
2022-09-24T02:05:20.933Z,13
2022-09-24T02:10:20.089Z,15
2022-09-24T02:15:20.103Z,17
2022-09-24T02:20:17.115Z,13
2022-09-24T02:25:20.135Z,15
2022-09-24T02:30:17.125Z,18
2022-09-24T02:35:20.094Z,11
2022-09-24T02:40:21.208Z,16
2022-09-24T02:45:20.086Z,16
2022-09-24T02:50:16.932Z,11
2022-09-24T02:55:17.176Z,11
2022-09-24T03:00:17.147Z,13
2022-09-24T03:05:20.118Z,16
2022-09-24T03:10:20.145Z,9
2022-09-24T03:15:20.834Z,9
2022-09-24T03:20:20.139Z,14
2022-09-24T03:25:17.121Z,14
2022-09-24T03:30:17.237Z,12
2022-09-24T03:35:20.136Z,11
2022-09-24T03:40:20.215Z,12
2022-09-24T03:45:20.140Z,10
2022-09-24T03:50:20.872Z,14
2022-09-24T03:55:17.138Z,9
2022-09-24T04:00:16.451Z,15
2022-09-24T04:05:19.381Z,9
2022-09-24T04:10:19.403Z,10
2022-09-24T04:15:19.408Z,8
2022-09-24T04:20:16.426Z,7
2022-09-24T04:25:17.331Z,7
2022-09-24T04:30:16.400Z,7
2022-09-24T04:35:19.423Z,8
2022-09-24T04:40:19.460Z,9
2022-09-24T04:45:19.392Z,9
2022-09-24T04:50:19.397Z,8
2022-09-24T04:55:16.430Z,12
2022-09-24T05:00:20.239Z,7
2022-09-24T05:05:16.484Z,9
2022-09-24T05:10:16.288Z,0
2022-09-24T05:15:19.408Z,0
2022-09-24T05:20:19.437Z,0
2022-09-24T05:25:19.456Z,0
2022-09-24T05:30:16.233Z,0
2022-09-24T05:35:17.368Z,0
2022-09-24T05:40:19.514Z,0
2022-09-24T05:45:19.467Z,0
2022-09-24T05:50:19.472Z,0
2022-09-24T05:55:19.430Z,0
2022-09-24T06:00:16.495Z,0
2022-09-24T06:05:16.276Z,0
2022-09-24T06:10:17.218Z,0
2022-09-24T06:15:19.452Z,0
2022-09-24T06:20:19.483Z,0
2022-09-24T06:25:19.466Z,0
2022-09-24T06:30:19.423Z,0
2022-09-24T06:35:16.477Z,0
2022-09-24T06:40:16.584Z,0
2022-09-24T06:45:20.336Z,0
2022-09-24T06:50:19.466Z,0
2022-09-24T06:55:16.286Z,0
2022-09-24T07:00:19.453Z,0
2022-09-24T07:05:16.549Z,0
2022-09-24T07:10:16.507Z,0
2022-09-24T07:15:19.480Z,0
2022-09-24T07:20:20.350Z,0
2022-09-24T07:25:19.470Z,0
2022-09-24T07:30:16.275Z,0
2022-09-24T07:35:16.508Z,0
2022-09-24T07:40:16.663Z,0
2022-09-24T07:45:16.569Z,0
2022-09-24T07:50:19.483Z,0
2022-09-24T07:55:20.167Z,0
2022-09-24T08:00:19.488Z,0
2022-09-24T08:05:19.443Z,0
2022-09-24T08:10:16.553Z,0
2022-09-24T08:15:16.553Z,0
2022-09-24T08:20:16.362Z,0
2022-09-24T08:25:19.487Z,0
2022-09-24T08:30:20.365Z,0
2022-09-24T08:35:19.549Z,0
2022-09-24T08:40:19.560Z,0
2022-09-24T08:45:16.559Z,0
2022-09-24T08:50:16.535Z,0
2022-09-24T08:55:16.338Z,0
2022-09-24T09:00:19.673Z,0
2022-09-24T09:05:20.353Z,0
2022-09-24T09:10:19.678Z,0
2022-09-24T09:15:19.564Z,0
2022-09-24T09:20:16.534Z,0
2022-09-24T09:25:16.552Z,0
2022-09-24T09:30:19.555Z,0
2022-09-24T09:35:19.524Z,0
2022-09-24T09:40:20.442Z,0
2022-09-24T09:45:16.862Z,0
2022-09-24T09:50:19.547Z,0
2022-09-24T09:55:16.556Z,0
2022-09-24T10:00:16.546Z,0
2022-09-24T10:05:19.359Z,0
2022-09-24T10:10:19.549Z,0
2022-09-24T10:15:20.275Z,0
2022-09-24T10:20:16.389Z,0
2022-09-24T10:25:19.547Z,0
2022-09-24T10:30:19.557Z,0
2022-09-24T10:35:16.587Z,0
2022-09-24T10:40:16.719Z,0
2022-09-24T10:45:19.603Z,0
2022-09-24T10:50:20.435Z,0
2022-09-24T10:55:19.568Z,0
2022-09-24T11:00:19.532Z,0
2022-09-24T11:05:19.577Z,0
2022-09-24T11:10:16.415Z,0
2022-09-24T11:15:16.597Z,0
2022-09-24T11:20:16.589Z,0
2022-09-24T11:25:20.408Z,0
2022-09-24T11:30:16.404Z,0
2022-09-24T11:35:16.431Z,0
2022-09-24T11:40:16.434Z,0
2022-09-24T11:45:16.455Z,0
2022-09-24T11:50:16.407Z,0
2022-09-24T11:55:16.451Z,0
2022-09-24T12:00:17.175Z,0
2022-09-24T12:05:19.684Z,0
2022-09-24T12:10:19.621Z,0
2022-09-24T12:15:19.615Z,0
2022-09-24T12:20:19.599Z,0
2022-09-24T12:25:19.584Z,0
2022-09-24T12:30:20.374Z,0
2022-09-24T12:35:16.454Z,0
2022-09-24T12:40:19.651Z,4
2022-09-24T12:45:16.637Z,9
2022-09-24T12:50:19.789Z,10
2022-09-24T12:55:16.672Z,7
2022-09-24T13:00:19.667Z,6
2022-09-24T13:05:20.328Z,6
2022-09-24T13:10:19.651Z,8
2022-09-24T13:15:19.666Z,5
2022-09-24T13:20:19.655Z,8
2022-09-24T13:25:16.708Z,9
2022-09-24T13:30:19.655Z,13
2022-09-24T13:35:21.154Z,10
2022-09-24T13:40:20.620Z,11
2022-09-24T13:45:19.647Z,12
2022-09-24T13:50:19.664Z,12
2022-09-24T13:55:19.686Z,14
2022-09-24T14:00:19.626Z,7
2022-09-24T14:05:16.691Z,10
2022-09-24T14:10:19.672Z,11
2022-09-24T14:15:20.609Z,8
2022-09-24T14:20:19.654Z,12
2022-09-24T14:25:19.616Z,14
2022-09-24T14:30:16.684Z,10
2022-09-24T14:35:19.684Z,13
2022-09-24T14:40:19.767Z,11
2022-09-24T14:45:16.681Z,14
2022-09-24T14:50:17.421Z,14
2022-09-24T14:55:19.746Z,17
2022-09-24T15:00:19.704Z,20
2022-09-24T15:05:16.809Z,20
2022-09-24T15:10:19.703Z,10
2022-09-24T15:15:19.669Z,11
2022-09-24T15:20:16.765Z,16
2022-09-24T15:25:20.517Z,16
2022-09-24T15:30:19.700Z,16
2022-09-24T15:35:16.722Z,11
2022-09-24T15:40:19.750Z,10
2022-09-24T15:45:19.709Z,18
2022-09-24T15:50:16.732Z,14
2022-09-24T15:55:19.753Z,11
2022-09-24T16:00:20.618Z,16
2022-09-24T16:05:16.597Z,16
2022-09-24T16:10:16.745Z,11
2022-09-24T16:15:19.705Z,15
2022-09-24T16:20:19.809Z,16
2022-09-24T16:25:16.777Z,16
2022-09-24T16:30:16.767Z,13
2022-09-24T16:35:20.592Z,14
2022-09-24T16:40:19.777Z,13
2022-09-24T16:45:19.741Z,15
2022-09-24T16:50:16.815Z,9
2022-09-24T16:55:19.767Z,14
2022-09-24T17:00:16.718Z,10
2022-09-24T17:05:16.767Z,13
2022-09-24T17:10:20.529Z,21
2022-09-24T17:15:19.754Z,21
2022-09-24T17:20:16.805Z,11
2022-09-24T17:25:19.797Z,14
2022-09-24T17:30:19.747Z,16
2022-09-24T17:35:19.773Z,16
2022-09-24T17:40:21.542Z,13
2022-09-24T17:45:20.720Z,12
2022-09-24T17:50:19.750Z,13
2022-09-24T17:55:19.762Z,10
2022-09-24T18:00:19.731Z,11
2022-09-24T18:05:19.799Z,10
2022-09-24T18:10:19.718Z,12
2022-09-24T18:15:19.725Z,12
2022-09-24T18:20:20.607Z,13
2022-09-24T18:25:19.756Z,15
2022-09-24T18:30:19.745Z,13
2022-09-24T18:35:16.781Z,10
2022-09-24T18:40:19.879Z,10
2022-09-24T18:45:16.813Z,12
2022-09-24T18:50:19.774Z,10
2022-09-24T18:55:17.721Z,9
2022-09-24T19:00:19.843Z,17
2022-09-24T19:05:19.753Z,16
2022-09-24T19:10:16.822Z,11
2022-09-24T19:15:16.814Z,10
2022-09-24T19:20:19.794Z,12
2022-09-24T19:25:20.621Z,11
2022-09-24T19:30:16.769Z,11
2022-09-24T19:35:19.792Z,10
2022-09-24T19:40:19.885Z,14
2022-09-24T19:45:16.861Z,10
2022-09-24T19:50:19.797Z,11
2022-09-24T19:55:16.811Z,6
2022-09-24T20:00:20.636Z,10
2022-09-24T20:05:19.775Z,9
2022-09-24T20:10:16.832Z,15
2022-09-24T20:15:19.828Z,13
2022-09-24T20:20:19.788Z,11
2022-09-24T20:25:16.876Z,11
2022-09-24T20:30:19.884Z,12
2022-09-24T20:35:20.673Z,12
2022-09-24T20:40:19.846Z,13
2022-09-24T20:45:19.804Z,10
2022-09-24T20:50:19.816Z,10
2022-09-24T20:55:16.820Z,10
2022-09-24T21:00:19.807Z,7
2022-09-24T21:05:19.788Z,7
2022-09-24T21:10:17.560Z,8
2022-09-24T21:15:19.845Z,7
2022-09-24T21:20:16.804Z,11
2022-09-24T21:25:36.255Z,10
2022-09-24T21:30:19.836Z,8
2022-09-24T21:35:19.800Z,8
2022-09-24T21:40:16.971Z,13
2022-09-24T21:45:20.727Z,9
2022-09-24T21:50:19.878Z,10
2022-09-24T21:55:16.879Z,8
2022-09-24T22:00:19.864Z,8
2022-09-24T22:05:19.863Z,5
2022-09-24T22:10:16.890Z,5
2022-09-24T22:15:19.829Z,5
2022-09-24T22:20:20.667Z,6
2022-09-24T22:25:19.815Z,5
2022-09-24T22:30:16.901Z,5
2022-09-24T22:35:19.878Z,6
2022-09-24T22:40:16.928Z,6
2022-09-24T22:45:16.857Z,4
2022-09-24T22:50:19.863Z,6
2022-09-24T22:55:20.693Z,7
2022-09-24T23:00:16.915Z,5
2022-09-24T23:05:20.030Z,3
2022-09-24T23:10:19.887Z,3
2022-09-24T23:15:16.878Z,4
2022-09-24T23:20:19.882Z,6
2022-09-24T23:25:19.845Z,2
2022-09-24T23:30:17.769Z,2
2022-09-24T23:35:16.905Z,2
2022-09-24T23:40:20.140Z,1
2022-09-24T23:45:19.883Z,3
2022-09-24T23:50:19.881Z,3
2022-09-24T23:55:19.890Z,3
